createdAt,value
2024-05-09T00:01:31.666Z,15.82
2024-05-09T00:04:02.100Z,17.75
2024-05-09T00:06:32.222Z,16.52
2024-05-09T00:09:05.452Z,16.90
2024-05-09T00:11:35.949Z,17.27
2024-05-09T00:14:06.192Z,15.07
2024-05-09T00:16:36.399Z,15.60
2024-05-09T00:19:06.853Z,16.42
2024-05-09T00:21:37.052Z,16.08
2024-05-09T00:24:09.866Z,17.92
2024-05-09T00:26:39.998Z,19.48
2024-05-09T00:29:10.171Z,19.30
2024-05-09T00:31:40.239Z,19.38
2024-05-09T00:34:10.501Z,19.05
2024-05-09T00:36:40.832Z,20.35
2024-05-09T00:39:13.698Z,18.65
2024-05-09T00:41:44.089Z,19.00
2024-05-09T00:44:14.332Z,21.48
2024-05-09T00:46:44.859Z,20.50
2024-05-09T00:49:15.828Z,18.58
2024-05-09T00:51:46.648Z,18.42
2024-05-09T00:54:20.113Z,20.52
2024-05-09T00:56:52.409Z,17.00
2024-05-09T00:59:23.886Z,18.15
2024-05-09T01:01:54.461Z,18.85
2024-05-09T01:09:06.307Z,18.02
2024-05-09T01:11:41.470Z,19.08
2024-05-09T01:15:27.376Z,18.42
2024-05-09T01:18:26.876Z,20.27
2024-05-09T01:21:03.382Z,17.70
2024-05-09T01:24:49.079Z,18.55
2024-05-09T01:27:22.749Z,15.35
2024-05-09T01:34:01.349Z,19.20
2024-05-09T01:36:33.792Z,19.33
2024-05-09T01:39:51.267Z,14.45
2024-05-09T01:53:40.138Z,14.55
2024-05-09T02:07:10.579Z,17.35
2024-05-09T02:13:25.419Z,17.38
2024-05-09T02:17:10.952Z,15.95
2024-05-09T02:20:37.322Z,26.92
2024-05-09T02:23:11.404Z,22.30
2024-05-09T02:30:26.193Z,17.23
2024-05-09T02:48:00.457Z,14.75
2024-05-09T02:50:42.903Z,14.75
2024-05-09T02:58:18.452Z,15.60
2024-05-09T03:00:50.135Z,15.30
2024-05-09T03:07:28.547Z,25.95
2024-05-09T03:09:56.891Z,16.33
2024-05-09T03:12:31.400Z,14.63
2024-05-09T03:16:22.677Z,16.13
2024-05-09T03:21:50.212Z,16.63
2024-05-09T03:24:18.372Z,16.67
2024-05-09T03:26:52.971Z,16.10
2024-05-09T03:29:46.288Z,18.90
2024-05-09T03:39:04.779Z,18.85
2024-05-09T03:41:58.140Z,15.85
2024-05-09T03:52:05.696Z,17.92
2024-05-09T03:54:35.383Z,18.33
2024-05-09T03:57:38.070Z,19.65
2024-05-09T04:00:17.800Z,17.30
2024-05-09T04:04:11.807Z,18.48
2024-05-09T04:06:39.807Z,18.52
2024-05-09T04:10:20.674Z,19.02
2024-05-09T04:13:19.984Z,19.17
2024-05-09T04:16:17.554Z,39.50
2024-05-09T04:28:40.923Z,29.35
2024-05-09T04:31:37.108Z,25.38
2024-05-09T04:34:36.457Z,22.25
2024-05-09T04:48:35.993Z,52.17
2024-05-09T05:00:52.194Z,17.20
2024-05-09T05:07:02.117Z,28.42
2024-05-09T05:09:49.329Z,21.70
2024-05-09T05:12:54.602Z,17.70
2024-05-09T05:15:45.920Z,16.13
2024-05-09T05:18:32.305Z,16.23
2024-05-09T05:21:21.821Z,27.48
2024-05-09T05:24:08.044Z,36.42
2024-05-09T05:26:57.171Z,15.20
2024-05-09T05:29:43.431Z,41.97
2024-05-09T05:32:34.740Z,43.00
2024-05-09T05:35:20.839Z,95.72
2024-05-09T05:38:11.087Z,36.67
2024-05-09T05:40:57.802Z,65.55
2024-05-09T05:43:48.048Z,30.38
2024-05-09T05:46:34.403Z,20.95
2024-05-09T05:49:25.805Z,61.13
2024-05-09T05:52:12.862Z,109.63
2024-05-09T05:55:01.831Z,20.23
2024-05-09T05:57:47.878Z,26.00
2024-05-09T06:00:39.262Z,50.08
2024-05-09T06:03:26.818Z,57.15
2024-05-09T06:06:18.086Z,27.02
2024-05-09T06:09:04.524Z,71.10
2024-05-09T06:11:53.567Z,53.88
2024-05-09T06:14:41.139Z,65.18
2024-05-09T06:17:29.880Z,28.98
2024-05-09T06:20:20.786Z,33.50
2024-05-09T06:23:19.103Z,32.10
2024-05-09T06:26:05.701Z,27.50
2024-05-09T06:28:54.532Z,37.17
2024-05-09T06:31:41.214Z,30.20
2024-05-09T06:34:29.941Z,30.60
2024-05-09T06:37:19.056Z,29.35
2024-05-09T06:39:49.561Z,30.27
2024-05-09T06:42:19.993Z,29.13
2024-05-09T06:44:47.565Z,29.60
2024-05-09T06:47:17.853Z,29.45
2024-05-09T06:49:45.479Z,29.70
2024-05-09T06:52:15.762Z,26.80
2024-05-09T06:54:43.699Z,29.92
2024-05-09T06:57:16.501Z,28.30
2024-05-09T06:59:44.359Z,31.92
2024-05-09T07:02:14.648Z,30.05
2024-05-09T07:04:42.195Z,29.48
2024-05-09T07:07:12.374Z,27.83
2024-05-09T07:09:40.345Z,28.00
2024-05-09T07:12:11.190Z,25.88
2024-05-09T07:14:42.035Z,27.63
2024-05-09T07:17:12.123Z,30.08
2024-05-09T07:19:39.719Z,26.52
2024-05-09T07:22:09.829Z,23.92
2024-05-09T07:24:37.719Z,27.45
2024-05-09T07:27:08.533Z,27.02
2024-05-09T07:29:38.549Z,27.10
2024-05-09T07:32:11.593Z,26.33
2024-05-09T07:34:39.149Z,23.38
2024-05-09T07:37:12.802Z,24.02
2024-05-09T07:39:40.498Z,22.90
2024-05-09T07:42:10.758Z,22.67
2024-05-09T07:44:38.196Z,21.38
2024-05-09T07:48:27.526Z,21.10
2024-05-09T07:51:48.080Z,22.67
2024-05-09T07:53:35.266Z,18.80
2024-05-09T07:55:38.043Z,20.60
2024-05-09T07:58:09.034Z,20.88
2024-05-09T08:00:36.773Z,17.77
2024-05-09T08:03:09.759Z,18.27
2024-05-09T08:05:38.240Z,18.33
2024-05-09T08:08:09.381Z,16.95
2024-05-09T08:10:37.053Z,15.85
2024-05-09T08:13:07.541Z,15.20
2024-05-09T08:15:35.184Z,16.33
2024-05-09T08:18:05.396Z,14.32
2024-05-09T08:20:37.290Z,15.88
2024-05-09T08:23:07.769Z,13.20
2024-05-09T08:25:35.342Z,13.98
2024-05-09T08:28:07.335Z,14.27
2024-05-09T08:30:37.327Z,12.07
2024-05-09T08:33:09.017Z,11.45
2024-05-09T08:35:39.165Z,11.60
2024-05-09T08:38:09.852Z,13.98
2024-05-09T08:40:38.253Z,11.30
2024-05-09T08:43:12.730Z,14.45
2024-05-09T08:45:44.576Z,12.13
2024-05-09T08:48:16.918Z,10.00
2024-05-09T08:50:51.303Z,9.68
2024-05-09T08:53:21.720Z,9.13
2024-05-09T08:55:51.343Z,9.95
2024-05-09T08:58:21.972Z,10.05
2024-05-09T09:00:49.845Z,9.88
2024-05-09T09:03:21.440Z,9.52
2024-05-09T09:05:58.598Z,9.07
2024-05-09T09:08:29.241Z,11.13
2024-05-09T09:10:59.198Z,8.85
2024-05-09T09:13:29.271Z,8.30
2024-05-09T09:15:59.416Z,8.93
2024-05-09T09:18:31.497Z,7.45
2024-05-09T09:21:03.086Z,8.90
2024-05-09T09:23:33.570Z,8.52
2024-05-09T09:26:01.591Z,9.75
2024-05-09T09:28:32.324Z,9.07
2024-05-09T09:31:03.539Z,8.82
2024-05-09T09:33:36.164Z,8.52
2024-05-09T09:36:08.968Z,8.27
2024-05-09T09:38:40.552Z,7.72
2024-05-09T09:41:10.833Z,8.93
2024-05-09T09:43:42.268Z,9.05
2024-05-09T09:46:12.585Z,7.82
2024-05-09T09:48:44.602Z,7.18
2024-05-09T09:51:16.020Z,11.23
2024-05-09T09:53:47.728Z,11.57
2024-05-09T09:56:18.151Z,10.65
2024-05-09T09:58:49.405Z,9.20
2024-05-09T10:01:16.893Z,11.45
2024-05-09T10:03:47.814Z,8.98
2024-05-09T10:06:19.031Z,7.93
2024-05-09T10:08:50.435Z,8.02
2024-05-09T10:11:20.554Z,9.38
2024-05-09T10:13:51.112Z,9.02
2024-05-09T10:16:22.333Z,6.82
2024-05-09T10:18:52.710Z,7.25
2024-05-09T10:21:23.448Z,6.32
2024-05-09T10:24:00.721Z,6.70
2024-05-09T10:26:33.023Z,7.50
2024-05-09T10:29:03.562Z,5.10
2024-05-09T10:31:31.167Z,5.97
2024-05-09T10:34:03.608Z,4.10
2024-05-09T10:36:34.238Z,5.95
2024-05-09T10:39:05.480Z,5.22
2024-05-09T10:41:33.849Z,5.28
2024-05-09T10:44:04.426Z,7.78
2024-05-09T10:46:32.214Z,5.30
2024-05-09T10:49:06.229Z,8.45
2024-05-09T10:51:37.992Z,5.32
2024-05-09T10:54:08.057Z,4.45
2024-05-09T10:56:35.573Z,3.63
2024-05-09T10:59:06.515Z,3.63
2024-05-09T11:01:34.319Z,3.75
2024-05-09T11:04:04.640Z,3.03
2024-05-09T11:06:35.062Z,3.65
2024-05-09T11:09:08.843Z,6.60
2024-05-09T11:11:36.639Z,3.42
2024-05-09T11:14:15.188Z,4.60
2024-05-09T11:16:42.575Z,2.88
2024-05-09T11:19:18.600Z,4.35
2024-05-09T11:21:51.458Z,4.65
2024-05-09T11:24:25.164Z,3.88
2024-05-09T11:26:52.609Z,6.53
2024-05-09T11:29:22.758Z,3.15
2024-05-09T11:31:50.341Z,4.10
2024-05-09T11:34:20.771Z,2.53
2024-05-09T11:36:48.467Z,3.55
2024-05-09T11:39:18.836Z,3.45
2024-05-09T11:41:48.983Z,5.47
2024-05-09T11:44:19.082Z,5.18
2024-05-09T11:46:47.175Z,3.90
2024-05-09T11:49:17.573Z,4.43
2024-05-09T11:51:45.156Z,3.22
2024-05-09T11:54:16.861Z,2.97
2024-05-09T11:56:44.358Z,3.03
2024-05-09T11:59:17.545Z,4.20
2024-05-09T12:01:45.104Z,3.00
2024-05-09T12:04:15.534Z,3.33
2024-05-09T12:06:43.113Z,3.90
2024-05-09T12:09:13.280Z,3.35
2024-05-09T12:11:41.252Z,2.45
2024-05-09T12:14:11.391Z,4.80
2024-05-09T12:16:41.663Z,4.65
2024-05-09T12:19:11.823Z,4.20
2024-05-09T12:21:39.381Z,3.47
2024-05-09T12:24:09.937Z,4.22
2024-05-09T12:26:37.429Z,3.63
2024-05-09T12:29:07.736Z,3.90
2024-05-09T12:31:35.258Z,5.00
2024-05-09T12:34:08.080Z,4.63
2024-05-09T12:36:35.764Z,5.80
2024-05-09T12:39:06.489Z,5.18
2024-05-09T12:41:34.351Z,6.30
2024-05-09T12:44:04.413Z,7.18
2024-05-09T12:46:32.157Z,3.40
2024-05-09T12:49:02.253Z,3.55
2024-05-09T12:51:32.960Z,3.22
2024-05-09T12:54:03.375Z,3.83
2024-05-09T12:56:31.232Z,4.78
2024-05-09T12:59:01.758Z,5.07
2024-05-09T13:01:29.945Z,5.50
2024-05-09T13:04:00.783Z,3.78
2024-05-09T13:06:28.795Z,6.13
2024-05-09T13:09:01.858Z,4.63
2024-05-09T13:11:29.447Z,6.47
2024-05-09T13:13:59.577Z,6.00
2024-05-09T13:16:27.100Z,4.03
2024-05-09T13:18:54.752Z,4.35
2024-05-09T13:21:24.827Z,3.08
2024-05-09T13:23:52.620Z,4.57
2024-05-09T13:26:25.392Z,5.03
2024-05-09T13:28:52.808Z,6.13
2024-05-09T13:31:23.119Z,5.03
2024-05-09T13:33:50.793Z,4.72
2024-05-09T13:36:21.241Z,3.38
2024-05-09T13:38:48.871Z,2.65
2024-05-09T13:41:18.934Z,4.97
2024-05-09T13:43:48.941Z,4.97
2024-05-09T13:46:19.135Z,5.53
2024-05-09T13:48:46.882Z,3.83
2024-05-09T13:51:17.758Z,4.05
2024-05-09T13:53:45.143Z,2.67
2024-05-09T13:56:15.318Z,5.35
2024-05-09T13:58:42.825Z,2.80
2024-05-09T14:01:17.443Z,4.72
2024-05-09T14:03:45.041Z,3.50
2024-05-09T14:06:16.145Z,3.30
2024-05-09T14:08:43.969Z,6.13
2024-05-09T14:11:15.650Z,4.07
2024-05-09T14:13:43.426Z,4.28
2024-05-09T14:16:16.331Z,3.03
2024-05-09T14:18:43.945Z,2.65
2024-05-09T14:21:14.051Z,3.63
2024-05-09T14:23:44.273Z,6.00
2024-05-09T14:26:11.943Z,3.50
2024-05-09T14:28:43.283Z,3.22
2024-05-09T14:31:16.738Z,2.58
2024-05-09T14:33:44.507Z,4.95
2024-05-09T14:36:15.588Z,5.53
2024-05-09T14:38:43.070Z,4.80
2024-05-09T14:41:13.496Z,2.78
2024-05-09T14:43:41.067Z,5.53
2024-05-09T14:46:11.224Z,4.10
2024-05-09T14:48:42.574Z,3.28
2024-05-09T14:51:12.608Z,2.20
2024-05-09T14:53:43.188Z,4.38
2024-05-09T14:56:14.526Z,8.30
2024-05-09T14:58:42.130Z,3.13
2024-05-09T15:01:12.266Z,2.38
2024-05-09T15:03:42.536Z,3.83
2024-05-09T15:06:13.062Z,4.25
2024-05-09T15:08:41.918Z,2.60
2024-05-09T15:11:12.309Z,5.35
2024-05-09T15:13:39.855Z,2.30
2024-05-09T15:16:10.701Z,3.83
2024-05-09T15:18:44.060Z,5.45
2024-05-09T15:21:14.303Z,2.20
2024-05-09T15:23:41.914Z,3.50
2024-05-09T15:26:12.059Z,2.67
2024-05-09T15:28:41.056Z,4.13
2024-05-09T15:31:11.201Z,3.95
2024-05-09T15:33:42.980Z,3.22
2024-05-09T15:36:13.413Z,6.35
2024-05-09T15:38:40.976Z,3.08
2024-05-09T15:41:11.106Z,4.07
2024-05-09T15:43:38.756Z,3.95
2024-05-09T15:46:09.327Z,4.85
2024-05-09T15:48:37.813Z,5.70
2024-05-09T15:51:11.670Z,4.63
2024-05-09T15:53:39.151Z,5.35
2024-05-09T15:56:10.959Z,5.80
2024-05-09T15:58:38.478Z,6.85
2024-05-09T16:01:08.815Z,4.70
2024-05-09T16:03:36.533Z,4.82
2024-05-09T16:06:11.219Z,3.97
2024-05-09T16:08:39.489Z,5.28
2024-05-09T16:11:10.332Z,6.63
2024-05-09T16:13:37.846Z,6.25
2024-05-09T16:16:09.081Z,3.75
2024-05-09T16:18:36.654Z,3.40
2024-05-09T16:21:06.949Z,9.65
2024-05-09T16:23:39.868Z,4.22
2024-05-09T16:26:10.795Z,8.63
2024-05-09T16:28:38.218Z,6.07
2024-05-09T16:31:08.720Z,5.38
2024-05-09T16:33:37.110Z,4.53
2024-05-09T16:36:07.909Z,3.17
2024-05-09T16:38:40.170Z,4.53
2024-05-09T16:41:10.291Z,4.25
2024-05-09T16:43:37.750Z,3.60
2024-05-09T16:46:09.114Z,4.03
2024-05-09T16:48:37.284Z,5.32
2024-05-09T16:51:07.476Z,4.07
2024-05-09T16:53:38.454Z,3.58
2024-05-09T16:56:09.637Z,5.70
2024-05-09T16:58:37.693Z,3.20
2024-05-09T17:01:08.116Z,5.05
2024-05-09T17:03:37.150Z,4.55
2024-05-09T17:06:08.537Z,5.70
2024-05-09T17:08:40.539Z,5.90
2024-05-09T17:11:11.523Z,5.05
2024-05-09T17:13:45.210Z,4.95
2024-05-09T17:16:18.278Z,5.95
2024-05-09T17:18:49.826Z,4.07
2024-05-09T17:21:17.464Z,4.25
2024-05-09T17:23:54.307Z,3.90
2024-05-09T17:26:24.670Z,5.93
2024-05-09T17:28:52.339Z,6.70
2024-05-09T17:31:22.536Z,6.22
2024-05-09T17:33:50.191Z,5.88
2024-05-09T17:36:20.720Z,6.28
2024-05-09T17:38:50.894Z,5.15
2024-05-09T17:41:21.382Z,4.70
2024-05-09T17:43:48.785Z,5.28
2024-05-09T17:46:18.921Z,6.13
2024-05-09T17:48:46.498Z,4.95
2024-05-09T17:51:16.702Z,5.28
2024-05-09T17:53:44.163Z,4.65
2024-05-09T17:56:17.892Z,5.18
2024-05-09T17:58:46.764Z,5.07
2024-05-09T18:01:16.844Z,8.88
2024-05-09T18:03:44.639Z,4.25
2024-05-09T18:06:14.728Z,4.57
2024-05-09T18:08:42.370Z,3.50
2024-05-09T18:11:12.352Z,3.33
2024-05-09T18:13:42.619Z,5.88
2024-05-09T18:16:12.782Z,3.38
2024-05-09T18:18:41.222Z,3.58
2024-05-09T18:21:11.454Z,3.33
2024-05-09T18:23:38.999Z,4.47
2024-05-09T18:26:09.630Z,4.28
2024-05-09T18:28:37.239Z,4.90
2024-05-09T18:31:10.243Z,4.00
2024-05-09T18:33:38.054Z,4.25
2024-05-09T18:36:10.468Z,3.88
2024-05-09T18:38:39.102Z,6.10
2024-05-09T18:41:09.300Z,4.75
2024-05-09T18:43:42.308Z,3.20
2024-05-09T18:46:18.528Z,4.15
2024-05-09T18:48:46.228Z,4.35
2024-05-09T18:51:16.466Z,3.90
2024-05-09T18:53:45.080Z,3.67
2024-05-09T18:56:15.478Z,8.65
2024-05-09T18:58:43.017Z,4.47
2024-05-09T19:01:14.115Z,4.13
2024-05-09T19:03:44.687Z,5.60
2024-05-09T19:06:15.053Z,4.32
2024-05-09T19:08:42.567Z,3.80
2024-05-09T19:11:12.787Z,5.72
2024-05-09T19:13:40.767Z,5.57
2024-05-09T19:16:11.235Z,7.28
2024-05-09T19:18:38.932Z,4.15
2024-05-09T19:21:14.280Z,5.25
2024-05-09T19:23:47.160Z,4.78
2024-05-09T19:26:22.203Z,3.17
2024-05-09T19:28:49.660Z,5.82
2024-05-09T19:31:19.919Z,5.22
2024-05-09T19:33:47.521Z,6.10
2024-05-09T19:36:21.253Z,3.55
2024-05-09T19:38:51.382Z,6.43
2024-05-09T19:41:21.557Z,5.82
2024-05-09T19:43:48.976Z,6.47
2024-05-09T19:46:20.435Z,3.92
2024-05-09T19:48:48.359Z,4.85
2024-05-09T19:51:21.382Z,5.50
2024-05-09T19:53:50.696Z,4.90
2024-05-09T19:56:21.234Z,7.93
2024-05-09T19:58:49.023Z,5.10
2024-05-09T20:01:21.474Z,4.18
2024-05-09T20:03:50.906Z,4.35
2024-05-09T20:06:26.402Z,5.97
2024-05-09T20:08:58.540Z,4.10
2024-05-09T20:11:33.267Z,4.05
2024-05-09T20:14:01.345Z,5.43
2024-05-09T20:16:33.329Z,5.85
2024-05-09T20:19:01.337Z,5.35
2024-05-09T20:21:34.488Z,7.25
2024-05-09T20:24:02.195Z,5.50
2024-05-09T20:26:32.327Z,5.45
2024-05-09T20:28:59.730Z,5.20
2024-05-09T20:31:30.252Z,5.80
2024-05-09T20:33:57.787Z,5.53
2024-05-09T20:36:27.834Z,6.28
2024-05-09T20:38:58.005Z,5.85
2024-05-09T20:41:28.113Z,5.68
2024-05-09T20:43:58.268Z,7.90
2024-05-09T20:46:30.721Z,6.95
2024-05-09T20:48:58.323Z,8.52
2024-05-09T20:51:30.217Z,5.90
2024-05-09T20:54:00.521Z,6.30
2024-05-09T20:56:30.707Z,5.07
2024-05-09T20:58:58.311Z,7.22
2024-05-09T21:01:28.482Z,8.65
2024-05-09T21:03:56.215Z,9.70
2024-05-09T21:06:26.443Z,5.72
2024-05-09T21:08:53.851Z,6.43
2024-05-09T21:11:26.632Z,4.50
2024-05-09T21:13:54.256Z,7.45
2024-05-09T21:16:25.268Z,5.38
2024-05-09T21:18:52.747Z,6.28
2024-05-09T21:21:23.208Z,6.47
2024-05-09T21:23:50.579Z,8.23
2024-05-09T21:26:23.495Z,7.70
2024-05-09T21:28:53.503Z,8.13
2024-05-09T21:31:23.638Z,7.88
2024-05-09T21:33:51.043Z,7.00
2024-05-09T21:36:21.363Z,9.38
2024-05-09T21:38:48.853Z,5.60
2024-05-09T21:41:19.258Z,6.07
2024-05-09T21:43:46.583Z,7.57
2024-05-09T21:46:20.061Z,6.35
2024-05-09T21:48:47.620Z,7.80
2024-05-09T21:51:17.602Z,5.97
2024-05-09T21:53:45.057Z,5.35
2024-05-09T21:56:15.016Z,6.28
2024-05-09T21:58:42.527Z,6.82
2024-05-09T22:01:12.988Z,6.75
2024-05-09T22:03:43.408Z,6.75
2024-05-09T22:06:13.649Z,6.18
2024-05-09T22:08:41.096Z,8.15
2024-05-09T22:11:11.438Z,6.75
2024-05-09T22:13:39.027Z,7.10
2024-05-09T22:16:10.787Z,8.13
2024-05-09T22:18:38.368Z,5.57
2024-05-09T22:21:11.100Z,8.30
2024-05-09T22:23:38.546Z,8.48
2024-05-09T22:26:09.125Z,7.70
2024-05-09T22:28:36.470Z,7.15
2024-05-09T22:31:06.569Z,7.70
2024-05-09T22:33:34.340Z,6.22
2024-05-09T22:36:04.647Z,7.78
2024-05-09T22:38:34.921Z,9.90
2024-05-09T22:41:08.464Z,9.70
2024-05-09T22:43:36.153Z,9.73
2024-05-09T22:46:06.633Z,13.85
2024-05-09T22:48:34.489Z,9.82
2024-05-09T22:51:04.935Z,9.30
2024-05-09T22:53:35.221Z,7.18
2024-05-09T22:56:05.457Z,8.20
2024-05-09T22:58:32.975Z,9.48
2024-05-09T23:01:03.389Z,7.88
2024-05-09T23:03:32.263Z,9.55
2024-05-09T23:06:02.476Z,10.50
2024-05-09T23:08:30.025Z,7.43
2024-05-09T23:11:03.475Z,8.85
2024-05-09T23:13:30.979Z,9.80
2024-05-09T23:16:01.250Z,9.98
2024-05-09T23:18:29.231Z,8.10
2024-05-09T23:20:59.412Z,8.30
2024-05-09T23:23:27.437Z,11.13
2024-05-09T23:25:57.557Z,9.45
2024-05-09T23:28:27.701Z,11.15
2024-05-09T23:30:59.117Z,8.38
2024-05-09T23:33:26.808Z,8.60
2024-05-09T23:35:57.053Z,9.30
2024-05-09T23:38:24.960Z,8.32
2024-05-09T23:40:55.215Z,11.38
2024-05-09T23:43:22.754Z,9.45
2024-05-09T23:45:55.685Z,8.40
2024-05-09T23:48:23.352Z,7.78
2024-05-09T23:50:53.394Z,6.63
2024-05-09T23:53:20.849Z,8.60
2024-05-09T23:55:50.933Z,8.45
2024-05-09T23:58:18.425Z,8.70
